aviador You're here:

KLXT Decoded Metar

LEES SUMMIT MUNI in MO, USA
Report Time2017-06-29 06:53:00
UTC Time2017-06-29 07:13:06
Flight Rules vfr VFR
Wind170° at 09 kt
W.Decomp.*RWY 18: 8.8 kt HW 1.9 kt LCW
RWY 11: 4.8 kt HW 7.6 kt RCW
W.Rank170° ranks 5
Current wind is above 170° avg. (8.1)
Visibility9999 m
Phenomena:N/A
Clouds:N/A
Expected CloudBase > 2,400 ft AGL from Temp-Dew spread
CeilingNone
Temp26°C (ISA +13)
Dew Point20°C (70% RH)
QNH1010 hPa
Density Alt2,917 ft
Elevation1,004 ft
Report Wrong Elevation
Raw Report
KLXT 290653Z AUTO 17009KT 10SM CLR 26/20 A2983 RMK AO2 SLP091
T02560200=

Extra information for KLXT:More info

Metar Taf Metar & Taf Last 4 Metars F.Rules Stats Wind Profile Meteogram Temp Stats Airport Information Weather charts Add Link Nearby VenuesMetar ALERT Operation Metar Decoded Social comments

AIRNAV info for KLXT